Flight Track Log - Related Links

Times and Time Zones

All times are in EDT time to prevent confusion due to time zone crossing. See the EJA831 flight status page for this flight to view local times or setup timezone preferences in your user account.

Time Position Orientation Groundspeed Altitude Reporting Facility
EDT Latitude Longitude Course Direction KTS MPH feet Rate Location/Type
Tue 01:52:58 PM 42.4197 -83.0217 36° Northeast 157 181 1,600  Level Cleveland Center
Tue 01:54:24 PM 42.4667 -82.9758 36° Northeast 278 320 3,000 791 Climbing Cleveland Center
Tue 01:55:07 PM 42.4258 -82.9347 143° Southeast 330 380 3,300 1,340 Climbing Cleveland Center
Tue 01:56:07 PM 42.3642 -82.8903 152° Southeast 284 327 5,300 3,167 Climbing Cleveland Center
Tue 01:58:07 PM 42.2525 -82.7264 133° Southeast 284 327 12,800 3,067 Climbing Cleveland Center
Tue 01:59:07 PM 42.1794 -82.6231 134° Southeast 329 379 14,500 1,100 Climbing Cleveland Center
Tue 02:00:07 PM 42.1022 -82.5086 132° Southeast 374 430 15,000 1,450 Climbing Cleveland Center
Tue 02:01:07 PM 42.0689 -82.3733 108° East 397 457 17,400 2,000 Climbing Cleveland Center
Tue 02:02:07 PM 42.0483 -82.2244 100° East 384 442 19,000 800 Climbing Cleveland Center
Tue 02:03:07 PM 42.0089 -82.0558 107° East 406 467 19,000  Level Cleveland Center
Tue 02:04:07 PM 41.9100 -81.9586 144° Southeast 411 473 19,000  Level Cleveland Center
Tue 02:05:07 PM 41.8131 -81.8647 144° Southeast 418 481 19,000  Level Cleveland Center
Tue 02:06:07 PM 41.7222 -81.7794 145° Southeast 415 478 19,000  Level Cleveland Center
Tue 02:07:07 PM 41.6356 -81.6972 145° Southeast 403 464 19,000  Level Cleveland Center
Tue 02:08:07 PM 41.5508 -81.6153 144° Southeast 387 445 19,000  Level Cleveland Center
Tue 02:09:07 PM 41.4642 -81.5364 146° Southeast 381 438 19,000  Level Cleveland Center
Tue 02:10:07 PM 41.3833 -81.4578 144° Southeast 375 432 19,000  Level Cleveland Center
Tue 02:11:07 PM 41.3047 -81.3847 145° Southeast 380 437 19,000  Level Cleveland Center
Tue 02:12:07 PM 41.2175 -81.3092 147° Southeast 380 437 19,000  Level Cleveland Center
Tue 02:13:07 PM 41.1114 -81.2997 176° South 356 410 19,000  Level Cleveland Center
Tue 02:14:07 PM 41.0114 -81.3094 184° South 356 410 19,000  Level Cleveland Center
Tue 02:15:07 PM 40.9111 -81.3194 184° South 361 415 19,000  Level Cleveland Center
Tue 02:16:07 PM 40.8131 -81.3267 183° South 361 415 19,000  Level Cleveland Center
Tue 02:17:07 PM 40.7131 -81.3336 183° South 361 415 19,000  Level Cleveland Center
Tue 02:18:07 PM 40.6169 -81.3408 183° South 361 415 19,000  Level Cleveland Center
Tue 02:19:07 PM 40.5189 -81.3478 183° South 361 415 19,000  Level Cleveland Center
Tue 02:20:07 PM 40.4189 -81.3550 183° South 361 415 19,000  Level Cleveland Center
Tue 02:21:02 PM 40.3306 -81.3636 184° South 357 411 19,000 -310 Level Indianapolis Center
Tue 02:22:03 PM 40.2297 -81.3717 183° South 360 414 18,400 -1,268 Descending Indianapolis Center
Tue 02:23:05 PM 40.1239 -81.3803 184° South 375 432 16,400 -1,984 Descending Indianapolis Center
Tue 02:24:07 PM 40.0194 -81.3869 183° South 372 428 14,300 -2,177 Descending Indianapolis Center
Tue 02:25:09 PM 39.9111 -81.3972 184° South 358 412 11,900 -2,226 Descending Indianapolis Center
Tue 02:26:11 PM 39.8192 -81.4033 183° South 332 382 9,700 -2,177 Descending Indianapolis Center
Tue 02:27:13 PM 39.7322 -81.4086 183° South 315 362 7,400 -2,177 Descending Indianapolis Center
Tue 02:28:15 PM 39.6525 -81.4169 185° South 293 337 5,200 -1,645 Descending Indianapolis Center
Tue 02:29:17 PM 39.5822 -81.4228 184° South 269 310 4,000 -1,073 Descending Indianapolis Center
Tue 02:30:18 PM 39.5142 -81.4278 183° South 255 293 3,000 -585 Descending Indianapolis Center
Tue 02:31:20 PM 39.4458 -81.4189 174° South 250 288 2,800 -581 Descending Indianapolis Center
Tue 02:32:22 PM 39.3831 -81.4106 174° South 232 267 1,800 -968 Descending Indianapolis Center

Login

Don't have an account? Register now (free) for customized features, flight alerts, and more!